Altoona, Florida
Current Conditions -  °F | °C
As of 11:53 PM on Saturday 22 Nov 2014 (Local Time) from KLEE Reporting Station
Overcast Overcast  
Wind Chill: 69°   Ceiling: 3200
Heat Index: 69°   Visibility: 10mi
Dew Point: 65°   Wind: 10mph
Humidity: 87%   Direction: 100°E
Pressure: 30.11"   Gusts: NA
Location:  28.97°N, 81.65°W
Report Text: KLEE 230453Z AUTO 10009KT 10SM BKN032 BKN080 OVC095 21/18 A3011 RMK AO2 SLP194 T02060183 402110150
Loading
Personal Weather Stations






























Interactive Weather Map New forecast layout! Learn more

10-Day Weather Forecast

Advertisements
Track Severe Weather on mobile